sensor_id;sensor_type;location;lat;lon;timestamp;P1;durP1;ratioP1;P2;durP2;ratioP2
50932;SDS011;36921;49.006;9.292;2022-07-05T00:02:22;5.55;;;1.98;;
50932;SDS011;36921;49.006;9.292;2022-07-05T00:04:48;3.10;;;1.67;;
50932;SDS011;36921;49.006;9.292;2022-07-05T00:07:15;2.30;;;1.90;;
50932;SDS011;36921;49.006;9.292;2022-07-05T00:09:47;2.60;;;1.63;;
50932;SDS011;36921;49.006;9.292;2022-07-05T00:12:17;2.20;;;1.40;;
50932;SDS011;36921;49.006;9.292;2022-07-05T00:14:43;2.30;;;1.45;;
50932;SDS011;36921;49.006;9.292;2022-07-05T00:17:10;3.45;;;2.38;;
50932;SDS011;36921;49.006;9.292;2022-07-05T00:19:36;4.82;;;2.03;;
50932;SDS011;36921;49.006;9.292;2022-07-05T00:22:02;3.95;;;1.98;;
50932;SDS011;36921;49.006;9.292;2022-07-05T00:24:27;5.40;;;2.10;;
50932;SDS011;36921;49.006;9.292;2022-07-05T00:26:53;5.88;;;2.10;;
50932;SDS011;36921;49.006;9.292;2022-07-05T00:29:18;3.47;;;1.98;;
50932;SDS011;36921;49.006;9.292;2022-07-05T00:31:44;4.70;;;1.92;;
50932;SDS011;36921;49.006;9.292;2022-07-05T00:34:09;3.08;;;2.17;;
50932;SDS011;36921;49.006;9.292;2022-07-05T00:36:34;6.63;;;2.00;;
50932;SDS011;36921;49.006;9.292;2022-07-05T00:39:00;4.00;;;1.90;;
50932;SDS011;36921;49.006;9.292;2022-07-05T00:41:26;3.03;;;1.90;;
50932;SDS011;36921;49.006;9.292;2022-07-05T00:43:52;6.28;;;2.50;;
50932;SDS011;36921;49.006;9.292;2022-07-05T00:46:23;2.88;;;1.75;;
50932;SDS011;36921;49.006;9.292;2022-07-05T00:48:49;4.35;;;2.00;;
50932;SDS011;36921;49.006;9.292;2022-07-05T00:51:14;2.90;;;1.88;;
50932;SDS011;36921;49.006;9.292;2022-07-05T00:53:40;2.72;;;1.60;;
50932;SDS011;36921;49.006;9.292;2022-07-05T00:56:07;4.25;;;1.75;;
50932;SDS011;36921;49.006;9.292;2022-07-05T00:58:33;3.58;;;1.90;;
50932;SDS011;36921;49.006;9.292;2022-07-05T01:00:58;3.13;;;1.73;;
50932;SDS011;36921;49.006;9.292;2022-07-05T01:03:26;2.87;;;1.60;;
50932;SDS011;36921;49.006;9.292;2022-07-05T01:05:52;4.75;;;2.20;;
50932;SDS011;36921;49.006;9.292;2022-07-05T01:08:18;3.53;;;1.67;;
50932;SDS011;36921;49.006;9.292;2022-07-05T01:10:44;7.38;;;1.90;;
50932;SDS011;36921;49.006;9.292;2022-07-05T01:13:10;2.67;;;1.60;;
50932;SDS011;36921;49.006;9.292;2022-07-05T01:15:35;1.75;;;1.48;;
50932;SDS011;36921;49.006;9.292;2022-07-05T01:18:00;4.35;;;1.80;;
50932;SDS011;36921;49.006;9.292;2022-07-05T01:20:26;3.38;;;1.55;;
50932;SDS011;36921;49.006;9.292;2022-07-05T01:22:52;8.43;;;1.77;;
50932;SDS011;36921;49.006;9.292;2022-07-05T01:25:19;9.25;;;1.80;;
50932;SDS011;36921;49.006;9.292;2022-07-05T01:27:46;4.03;;;2.00;;
50932;SDS011;36921;49.006;9.292;2022-07-05T01:30:13;10.07;;;1.77;;
50932;SDS011;36921;49.006;9.292;2022-07-05T01:32:39;4.00;;;2.05;;
50932;SDS011;36921;49.006;9.292;2022-07-05T01:35:04;2.42;;;1.70;;
50932;SDS011;36921;49.006;9.292;2022-07-05T01:37:30;5.65;;;2.60;;
50932;SDS011;36921;49.006;9.292;2022-07-05T01:39:56;8.77;;;2.33;;
50932;SDS011;36921;49.006;9.292;2022-07-05T01:42:23;3.25;;;2.00;;
50932;SDS011;36921;49.006;9.292;2022-07-05T01:44:48;5.15;;;1.98;;
50932;SDS011;36921;49.006;9.292;2022-07-05T01:47:14;3.40;;;1.70;;
50932;SDS011;36921;49.006;9.292;2022-07-05T01:49:41;5.70;;;1.60;;
50932;SDS011;36921;49.006;9.292;2022-07-05T01:52:11;5.90;;;1.80;;
50932;SDS011;36921;49.006;9.292;2022-07-05T01:54:38;4.78;;;1.50;;
50932;SDS011;36921;49.006;9.292;2022-07-05T01:57:05;3.70;;;1.77;;
50932;SDS011;36921;49.006;9.292;2022-07-05T01:59:34;2.53;;;1.77;;
50932;SDS011;36921;49.006;9.292;2022-07-05T02:02:01;4.88;;;1.58;;
50932;SDS011;36921;49.006;9.292;2022-07-05T02:04:27;5.68;;;1.60;;
50932;SDS011;36921;49.006;9.292;2022-07-05T02:06:54;4.25;;;1.70;;
50932;SDS011;36921;49.006;9.292;2022-07-05T02:09:19;3.25;;;2.00;;
50932;SDS011;36921;49.006;9.292;2022-07-05T02:11:44;2.20;;;1.50;;
50932;SDS011;36921;49.006;9.292;2022-07-05T02:14:10;3.30;;;1.88;;
50932;SDS011;36921;49.006;9.292;2022-07-05T02:16:36;4.93;;;1.75;;
50932;SDS011;36921;49.006;9.292;2022-07-05T02:19:02;2.65;;;1.67;;
50932;SDS011;36921;49.006;9.292;2022-07-05T02:21:27;2.40;;;1.80;;
50932;SDS011;36921;49.006;9.292;2022-07-05T02:23:53;3.22;;;1.80;;
50932;SDS011;36921;49.006;9.292;2022-07-05T02:26:19;3.22;;;2.13;;
50932;SDS011;36921;49.006;9.292;2022-07-05T02:28:45;3.33;;;1.85;;
50932;SDS011;36921;49.006;9.292;2022-07-05T02:31:10;4.53;;;2.00;;
50932;SDS011;36921;49.006;9.292;2022-07-05T02:33:36;3.17;;;1.83;;
50932;SDS011;36921;49.006;9.292;2022-07-05T02:36:11;3.03;;;2.00;;
50932;SDS011;36921;49.006;9.292;2022-07-05T02:38:38;6.05;;;2.00;;
50932;SDS011;36921;49.006;9.292;2022-07-05T02:41:05;3.63;;;1.70;;
50932;SDS011;36921;49.006;9.292;2022-07-05T02:43:31;2.92;;;1.40;;
50932;SDS011;36921;49.006;9.292;2022-07-05T02:45:57;4.78;;;1.40;;
50932;SDS011;36921;49.006;9.292;2022-07-05T02:48:22;1.77;;;1.08;;
50932;SDS011;36921;49.006;9.292;2022-07-05T02:50:48;2.53;;;1.27;;
50932;SDS011;36921;49.006;9.292;2022-07-05T02:53:13;3.53;;;1.67;;
50932;SDS011;36921;49.006;9.292;2022-07-05T02:55:39;2.95;;;1.60;;
50932;SDS011;36921;49.006;9.292;2022-07-05T02:58:04;2.78;;;1.40;;
50932;SDS011;36921;49.006;9.292;2022-07-05T03:00:29;2.97;;;1.60;;
50932;SDS011;36921;49.006;9.292;2022-07-05T03:02:54;2.20;;;1.38;;
50932;SDS011;36921;49.006;9.292;2022-07-05T03:05:20;4.07;;;1.35;;
50932;SDS011;36921;49.006;9.292;2022-07-05T03:07:45;2.40;;;1.20;;
50932;SDS011;36921;49.006;9.292;2022-07-05T03:10:10;3.40;;;1.48;;
50932;SDS011;36921;49.006;9.292;2022-07-05T03:12:36;2.03;;;1.25;;
50932;SDS011;36921;49.006;9.292;2022-07-05T03:15:01;4.63;;;1.35;;
50932;SDS011;36921;49.006;9.292;2022-07-05T03:17:26;2.75;;;1.55;;
50932;SDS011;36921;49.006;9.292;2022-07-05T03:19:52;4.20;;;1.70;;
50932;SDS011;36921;49.006;9.292;2022-07-05T03:22:17;6.70;;;1.90;;
50932;SDS011;36921;49.006;9.292;2022-07-05T03:24:42;7.80;;;2.15;;
50932;SDS011;36921;49.006;9.292;2022-07-05T03:27:07;6.30;;;2.30;;
50932;SDS011;36921;49.006;9.292;2022-07-05T03:29:33;3.60;;;1.83;;
50932;SDS011;36921;49.006;9.292;2022-07-05T03:31:58;4.63;;;1.60;;
50932;SDS011;36921;49.006;9.292;2022-07-05T03:34:23;5.38;;;1.45;;
50932;SDS011;36921;49.006;9.292;2022-07-05T03:36:49;2.47;;;1.70;;
50932;SDS011;36921;49.006;9.292;2022-07-05T03:39:14;2.47;;;1.55;;
50932;SDS011;36921;49.006;9.292;2022-07-05T03:41:39;1.58;;;1.48;;
50932;SDS011;36921;49.006;9.292;2022-07-05T03:44:04;2.65;;;1.70;;
50932;SDS011;36921;49.006;9.292;2022-07-05T03:46:30;7.45;;;2.10;;
50932;SDS011;36921;49.006;9.292;2022-07-05T03:48:55;12.05;;;2.05;;
50932;SDS011;36921;49.006;9.292;2022-07-05T03:51:20;5.60;;;2.05;;
50932;SDS011;36921;49.006;9.292;2022-07-05T03:53:45;2.10;;;1.70;;
50932;SDS011;36921;49.006;9.292;2022-07-05T03:56:11;2.83;;;2.10;;
50932;SDS011;36921;49.006;9.292;2022-07-05T03:58:36;7.93;;;2.20;;
50932;SDS011;36921;49.006;9.292;2022-07-05T04:01:02;6.00;;;2.00;;
50932;SDS011;36921;49.006;9.292;2022-07-05T04:03:27;5.80;;;2.50;;
50932;SDS011;36921;49.006;9.292;2022-07-05T04:05:53;3.95;;;1.83;;
50932;SDS011;36921;49.006;9.292;2022-07-05T04:08:18;7.53;;;2.08;;
50932;SDS011;36921;49.006;9.292;2022-07-05T04:10:43;7.00;;;1.83;;
50932;SDS011;36921;49.006;9.292;2022-07-05T04:13:08;4.88;;;2.25;;
50932;SDS011;36921;49.006;9.292;2022-07-05T04:15:34;4.13;;;1.88;;
50932;SDS011;36921;49.006;9.292;2022-07-05T04:17:59;6.07;;;1.75;;
50932;SDS011;36921;49.006;9.292;2022-07-05T04:20:24;2.00;;;1.48;;
50932;SDS011;36921;49.006;9.292;2022-07-05T04:22:50;4.15;;;1.23;;
50932;SDS011;36921;49.006;9.292;2022-07-05T04:25:16;3.97;;;1.70;;
50932;SDS011;36921;49.006;9.292;2022-07-05T04:27:45;3.65;;;1.73;;
50932;SDS011;36921;49.006;9.292;2022-07-05T04:30:17;5.78;;;1.80;;
50932;SDS011;36921;49.006;9.292;2022-07-05T04:32:44;5.70;;;1.65;;
50932;SDS011;36921;49.006;9.292;2022-07-05T04:35:11;3.20;;;1.70;;
50932;SDS011;36921;49.006;9.292;2022-07-05T04:37:37;4.07;;;1.60;;
50932;SDS011;36921;49.006;9.292;2022-07-05T04:40:03;8.45;;;1.92;;
50932;SDS011;36921;49.006;9.292;2022-07-05T04:42:29;3.45;;;1.83;;
50932;SDS011;36921;49.006;9.292;2022-07-05T04:44:54;2.05;;;1.35;;
50932;SDS011;36921;49.006;9.292;2022-07-05T04:47:20;3.80;;;1.63;;
50932;SDS011;36921;49.006;9.292;2022-07-05T04:49:45;2.72;;;1.42;;
50932;SDS011;36921;49.006;9.292;2022-07-05T04:52:10;1.77;;;1.60;;
50932;SDS011;36921;49.006;9.292;2022-07-05T04:54:36;3.28;;;1.75;;
50932;SDS011;36921;49.006;9.292;2022-07-05T04:57:02;3.75;;;1.45;;
50932;SDS011;36921;49.006;9.292;2022-07-05T04:59:27;4.68;;;1.70;;
50932;SDS011;36921;49.006;9.292;2022-07-05T05:01:52;4.63;;;1.60;;
50932;SDS011;36921;49.006;9.292;2022-07-05T05:04:18;4.25;;;1.92;;
50932;SDS011;36921;49.006;9.292;2022-07-05T05:06:43;5.63;;;2.03;;
50932;SDS011;36921;49.006;9.292;2022-07-05T05:09:08;6.00;;;1.67;;
50932;SDS011;36921;49.006;9.292;2022-07-05T05:11:34;7.40;;;1.70;;
50932;SDS011;36921;49.006;9.292;2022-07-05T05:13:59;6.47;;;1.70;;
50932;SDS011;36921;49.006;9.292;2022-07-05T05:16:24;2.75;;;1.50;;
50932;SDS011;36921;49.006;9.292;2022-07-05T05:18:50;2.88;;;1.25;;
50932;SDS011;36921;49.006;9.292;2022-07-05T05:21:15;2.58;;;1.40;;
50932;SDS011;36921;49.006;9.292;2022-07-05T05:23:40;5.80;;;1.67;;
50932;SDS011;36921;49.006;9.292;2022-07-05T05:26:06;5.38;;;2.08;;
50932;SDS011;36921;49.006;9.292;2022-07-05T05:28:31;9.90;;;1.98;;
50932;SDS011;36921;49.006;9.292;2022-07-05T05:30:56;3.05;;;2.00;;
50932;SDS011;36921;49.006;9.292;2022-07-05T05:33:22;6.03;;;2.17;;
50932;SDS011;36921;49.006;9.292;2022-07-05T05:35:47;6.03;;;2.17;;
50932;SDS011;36921;49.006;9.292;2022-07-05T05:38:12;6.30;;;2.42;;
50932;SDS011;36921;49.006;9.292;2022-07-05T05:40:38;4.93;;;1.98;;
50932;SDS011;36921;49.006;9.292;2022-07-05T05:43:03;2.50;;;2.25;;
50932;SDS011;36921;49.006;9.292;2022-07-05T05:45:29;5.82;;;2.55;;
50932;SDS011;36921;49.006;9.292;2022-07-05T05:47:55;5.65;;;2.47;;
50932;SDS011;36921;49.006;9.292;2022-07-05T05:50:26;4.97;;;2.47;;
50932;SDS011;36921;49.006;9.292;2022-07-05T05:52:55;6.10;;;2.38;;
50932;SDS011;36921;49.006;9.292;2022-07-05T05:55:22;4.68;;;2.35;;
50932;SDS011;36921;49.006;9.292;2022-07-05T05:57:48;7.25;;;2.35;;
50932;SDS011;36921;49.006;9.292;2022-07-05T06:00:14;4.22;;;2.10;;
50932;SDS011;36921;49.006;9.292;2022-07-05T06:02:40;3.28;;;1.98;;
50932;SDS011;36921;49.006;9.292;2022-07-05T06:05:07;4.13;;;2.30;;
50932;SDS011;36921;49.006;9.292;2022-07-05T06:07:47;3.47;;;2.00;;
50932;SDS011;36921;49.006;9.292;2022-07-05T06:10:19;2.28;;;1.92;;
50932;SDS011;36921;49.006;9.292;2022-07-05T06:12:46;5.22;;;1.77;;
50932;SDS011;36921;49.006;9.292;2022-07-05T06:15:11;3.28;;;1.90;;
50932;SDS011;36921;49.006;9.292;2022-07-05T06:17:37;6.35;;;2.13;;
50932;SDS011;36921;49.006;9.292;2022-07-05T06:20:16;2.85;;;1.48;;
50932;SDS011;36921;49.006;9.292;2022-07-05T06:22:43;5.47;;;1.60;;
50932;SDS011;36921;49.006;9.292;2022-07-05T06:25:09;5.55;;;1.70;;
50932;SDS011;36921;49.006;9.292;2022-07-05T06:27:41;3.85;;;1.50;;
50932;SDS011;36921;49.006;9.292;2022-07-05T06:30:08;3.25;;;2.00;;
50932;SDS011;36921;49.006;9.292;2022-07-05T06:32:34;4.65;;;1.88;;
50932;SDS011;36921;49.006;9.292;2022-07-05T06:35:00;3.78;;;1.60;;
50932;SDS011;36921;49.006;9.292;2022-07-05T06:37:25;5.82;;;1.50;;
50932;SDS011;36921;49.006;9.292;2022-07-05T06:39:51;3.78;;;1.48;;
50932;SDS011;36921;49.006;9.292;2022-07-05T06:42:16;4.00;;;1.23;;
50932;SDS011;36921;49.006;9.292;2022-07-05T06:44:41;3.58;;;1.30;;
50932;SDS011;36921;49.006;9.292;2022-07-05T06:47:08;1.95;;;1.25;;
50932;SDS011;36921;49.006;9.292;2022-07-05T06:49:33;6.40;;;1.27;;
50932;SDS011;36921;49.006;9.292;2022-07-05T06:51:59;1.45;;;0.80;;
50932;SDS011;36921;49.006;9.292;2022-07-05T06:54:24;3.95;;;1.10;;
50932;SDS011;36921;49.006;9.292;2022-07-05T06:56:49;1.63;;;0.90;;
50932;SDS011;36921;49.006;9.292;2022-07-05T06:59:14;1.67;;;0.93;;
50932;SDS011;36921;49.006;9.292;2022-07-05T07:01:40;1.83;;;1.00;;
50932;SDS011;36921;49.006;9.292;2022-07-05T07:04:05;3.03;;;1.00;;
50932;SDS011;36921;49.006;9.292;2022-07-05T07:06:30;4.07;;;0.90;;
50932;SDS011;36921;49.006;9.292;2022-07-05T07:08:56;2.30;;;0.80;;
50932;SDS011;36921;49.006;9.292;2022-07-05T07:11:39;2.00;;;0.85;;
50932;SDS011;36921;49.006;9.292;2022-07-05T07:14:05;2.80;;;1.05;;
50932;SDS011;36921;49.006;9.292;2022-07-05T07:16:30;1.83;;;0.68;;
50932;SDS011;36921;49.006;9.292;2022-07-05T07:18:56;3.03;;;0.80;;
50932;SDS011;36921;49.006;9.292;2022-07-05T07:21:22;0.70;;;0.70;;
50932;SDS011;36921;49.006;9.292;2022-07-05T07:23:47;1.70;;;0.73;;
50932;SDS011;36921;49.006;9.292;2022-07-05T07:26:12;1.30;;;0.55;;
50932;SDS011;36921;49.006;9.292;2022-07-05T07:28:38;2.20;;;0.70;;
50932;SDS011;36921;49.006;9.292;2022-07-05T07:31:04;3.42;;;0.85;;
50932;SDS011;36921;49.006;9.292;2022-07-05T07:33:29;2.88;;;0.80;;
50932;SDS011;36921;49.006;9.292;2022-07-05T07:35:54;1.35;;;0.80;;
50932;SDS011;36921;49.006;9.292;2022-07-05T07:38:20;1.95;;;0.63;;
50932;SDS011;36921;49.006;9.292;2022-07-05T07:40:45;3.25;;;0.60;;
50932;SDS011;36921;49.006;9.292;2022-07-05T07:43:10;3.38;;;0.65;;
50932;SDS011;36921;49.006;9.292;2022-07-05T07:45:36;1.85;;;0.50;;
50932;SDS011;36921;49.006;9.292;2022-07-05T07:48:01;1.30;;;0.53;;
50932;SDS011;36921;49.006;9.292;2022-07-05T07:50:26;1.20;;;0.63;;
50932;SDS011;36921;49.006;9.292;2022-07-05T07:52:52;6.13;;;0.80;;
50932;SDS011;36921;49.006;9.292;2022-07-05T07:55:17;1.13;;;0.43;;
50932;SDS011;36921;49.006;9.292;2022-07-05T07:57:42;2.13;;;0.70;;
50932;SDS011;36921;49.006;9.292;2022-07-05T08:00:08;1.80;;;0.43;;
50932;SDS011;36921;49.006;9.292;2022-07-05T08:02:33;1.50;;;0.68;;
50932;SDS011;36921;49.006;9.292;2022-07-05T08:04:59;1.00;;;0.50;;
50932;SDS011;36921;49.006;9.292;2022-07-05T08:07:24;1.02;;;0.47;;
50932;SDS011;36921;49.006;9.292;2022-07-05T08:09:50;4.95;;;0.73;;
50932;SDS011;36921;49.006;9.292;2022-07-05T08:12:17;5.10;;;0.60;;
50932;SDS011;36921;49.006;9.292;2022-07-05T08:14:43;1.83;;;0.50;;
50932;SDS011;36921;49.006;9.292;2022-07-05T08:17:08;1.73;;;0.50;;
50932;SDS011;36921;49.006;9.292;2022-07-05T08:19:34;3.95;;;0.70;;
50932;SDS011;36921;49.006;9.292;2022-07-05T08:22:20;2.83;;;0.52;;
50932;SDS011;36921;49.006;9.292;2022-07-05T08:24:46;3.90;;;0.52;;
50932;SDS011;36921;49.006;9.292;2022-07-05T08:27:11;2.83;;;0.40;;
50932;SDS011;36921;49.006;9.292;2022-07-05T08:29:37;2.67;;;0.50;;
50932;SDS011;36921;49.006;9.292;2022-07-05T08:32:03;1.02;;;0.60;;
50932;SDS011;36921;49.006;9.292;2022-07-05T08:34:29;2.97;;;0.50;;
50932;SDS011;36921;49.006;9.292;2022-07-05T08:36:54;2.97;;;0.50;;
50932;SDS011;36921;49.006;9.292;2022-07-05T08:39:20;2.53;;;0.60;;
50932;SDS011;36921;49.006;9.292;2022-07-05T08:41:47;0.75;;;0.50;;
50932;SDS011;36921;49.006;9.292;2022-07-05T08:44:20;1.95;;;0.45;;
50932;SDS011;36921;49.006;9.292;2022-07-05T08:46:47;0.70;;;0.50;;
50932;SDS011;36921;49.006;9.292;2022-07-05T08:49:15;1.63;;;0.52;;
50932;SDS011;36921;49.006;9.292;2022-07-05T08:51:48;2.60;;;0.65;;
50932;SDS011;36921;49.006;9.292;2022-07-05T08:54:14;2.58;;;0.60;;
50932;SDS011;36921;49.006;9.292;2022-07-05T08:56:42;3.20;;;0.65;;
50932;SDS011;36921;49.006;9.292;2022-07-05T08:59:10;1.45;;;0.70;;
50932;SDS011;36921;49.006;9.292;2022-07-05T09:01:36;1.23;;;0.47;;
50932;SDS011;36921;49.006;9.292;2022-07-05T09:04:04;3.57;;;0.73;;
50932;SDS011;36921;49.006;9.292;2022-07-05T09:06:31;3.00;;;0.60;;
50932;SDS011;36921;49.006;9.292;2022-07-05T09:08:59;0.85;;;0.50;;
50932;SDS011;36921;49.006;9.292;2022-07-05T09:11:29;1.23;;;0.50;;
50932;SDS011;36921;49.006;9.292;2022-07-05T09:14:00;2.10;;;0.45;;
50932;SDS011;36921;49.006;9.292;2022-07-05T09:16:27;2.28;;;0.80;;
50932;SDS011;36921;49.006;9.292;2022-07-05T09:18:53;2.00;;;0.50;;
50932;SDS011;36921;49.006;9.292;2022-07-05T09:21:23;3.53;;;0.50;;
50932;SDS011;36921;49.006;9.292;2022-07-05T09:23:56;1.52;;;0.60;;
50932;SDS011;36921;49.006;9.292;2022-07-05T09:26:31;0.43;;;0.40;;
50932;SDS011;36921;49.006;9.292;2022-07-05T09:29:07;6.72;;;0.73;;
50932;SDS011;36921;49.006;9.292;2022-07-05T09:31:35;1.40;;;0.63;;
50932;SDS011;36921;49.006;9.292;2022-07-05T09:34:05;3.40;;;0.60;;
50932;SDS011;36921;49.006;9.292;2022-07-05T09:47:21;1.33;;;0.30;;
50932;SDS011;36921;49.006;9.292;2022-07-05T09:49:50;1.33;;;0.30;;
50932;SDS011;36921;49.006;9.292;2022-07-05T09:52:25;2.50;;;0.63;;
50932;SDS011;36921;49.006;9.292;2022-07-05T09:54:59;1.73;;;0.50;;
50932;SDS011;36921;49.006;9.292;2022-07-05T09:57:33;2.15;;;0.50;;
50932;SDS011;36921;49.006;9.292;2022-07-05T10:00:07;1.75;;;0.73;;
50932;SDS011;36921;49.006;9.292;2022-07-05T10:02:39;1.90;;;0.60;;
50932;SDS011;36921;49.006;9.292;2022-07-05T10:07:35;1.00;;;0.40;;
50932;SDS011;36921;49.006;9.292;2022-07-05T10:10:02;1.42;;;0.35;;
50932;SDS011;36921;49.006;9.292;2022-07-05T10:12:27;2.53;;;0.57;;
50932;SDS011;36921;49.006;9.292;2022-07-05T10:14:55;6.80;;;0.40;;
50932;SDS011;36921;49.006;9.292;2022-07-05T10:17:23;2.13;;;0.50;;
50932;SDS011;36921;49.006;9.292;2022-07-05T10:19:50;2.00;;;0.40;;
50932;SDS011;36921;49.006;9.292;2022-07-05T10:22:16;2.85;;;0.60;;
50932;SDS011;36921;49.006;9.292;2022-07-05T10:24:41;0.80;;;0.40;;
50932;SDS011;36921;49.006;9.292;2022-07-05T10:27:07;2.78;;;0.50;;
50932;SDS011;36921;49.006;9.292;2022-07-05T10:29:33;1.88;;;0.50;;
50932;SDS011;36921;49.006;9.292;2022-07-05T10:31:59;3.50;;;0.40;;
50932;SDS011;36921;49.006;9.292;2022-07-05T10:34:26;1.42;;;0.40;;
50932;SDS011;36921;49.006;9.292;2022-07-05T10:36:53;1.65;;;0.50;;
50932;SDS011;36921;49.006;9.292;2022-07-05T10:39:18;1.83;;;0.40;;
50932;SDS011;36921;49.006;9.292;2022-07-05T10:41:44;1.45;;;0.65;;
50932;SDS011;36921;49.006;9.292;2022-07-05T10:44:09;0.75;;;0.40;;
50932;SDS011;36921;49.006;9.292;2022-07-05T10:46:35;1.00;;;0.30;;
50932;SDS011;36921;49.006;9.292;2022-07-05T10:49:13;1.27;;;0.50;;
50932;SDS011;36921;49.006;9.292;2022-07-05T10:51:45;0.95;;;0.38;;
50932;SDS011;36921;49.006;9.292;2022-07-05T10:54:11;1.83;;;0.50;;
50932;SDS011;36921;49.006;9.292;2022-07-05T10:56:37;2.20;;;0.40;;
50932;SDS011;36921;49.006;9.292;2022-07-05T10:59:07;2.95;;;0.45;;
50932;SDS011;36921;49.006;9.292;2022-07-05T11:01:35;0.60;;;0.38;;
50932;SDS011;36921;49.006;9.292;2022-07-05T11:06:43;1.02;;;0.40;;
50932;SDS011;36921;49.006;9.292;2022-07-05T11:14:00;0.83;;;0.50;;
50932;SDS011;36921;49.006;9.292;2022-07-05T11:16:28;0.77;;;0.35;;
50932;SDS011;36921;49.006;9.292;2022-07-05T11:19:07;0.60;;;0.40;;
50932;SDS011;36921;49.006;9.292;2022-07-05T11:21:40;1.42;;;0.60;;
50932;SDS011;36921;49.006;9.292;2022-07-05T11:24:29;1.58;;;0.28;;
50932;SDS011;36921;49.006;9.292;2022-07-05T11:26:59;0.77;;;0.40;;
50932;SDS011;36921;49.006;9.292;2022-07-05T11:29:44;1.20;;;0.50;;
50932;SDS011;36921;49.006;9.292;2022-07-05T11:32:19;1.92;;;0.40;;
50932;SDS011;36921;49.006;9.292;2022-07-05T11:34:47;3.38;;;0.50;;
50932;SDS011;36921;49.006;9.292;2022-07-05T11:37:17;1.10;;;0.38;;
50932;SDS011;36921;49.006;9.292;2022-07-05T11:42:31;2.22;;;0.40;;
50932;SDS011;36921;49.006;9.292;2022-07-05T11:45:05;3.13;;;0.65;;
50932;SDS011;36921;49.006;9.292;2022-07-05T11:47:31;1.20;;;0.50;;
50932;SDS011;36921;49.006;9.292;2022-07-05T11:49:58;1.17;;;0.30;;
50932;SDS011;36921;49.006;9.292;2022-07-05T11:52:27;4.47;;;0.60;;
50932;SDS011;36921;49.006;9.292;2022-07-05T11:54:59;1.00;;;0.35;;
50932;SDS011;36921;49.006;9.292;2022-07-05T11:57:25;3.35;;;0.68;;
50932;SDS011;36921;49.006;9.292;2022-07-05T11:59:50;0.63;;;0.30;;
50932;SDS011;36921;49.006;9.292;2022-07-05T12:02:17;0.95;;;0.43;;
50932;SDS011;36921;49.006;9.292;2022-07-05T12:04:53;2.17;;;0.77;;
50932;SDS011;36921;49.006;9.292;2022-07-05T12:07:32;1.95;;;0.70;;
50932;SDS011;36921;49.006;9.292;2022-07-05T12:10:00;2.58;;;0.40;;
50932;SDS011;36921;49.006;9.292;2022-07-05T12:12:45;1.13;;;0.55;;
50932;SDS011;36921;49.006;9.292;2022-07-05T12:15:20;1.45;;;0.40;;
50932;SDS011;36921;49.006;9.292;2022-07-05T12:17:49;1.48;;;0.40;;
50932;SDS011;36921;49.006;9.292;2022-07-05T12:20:21;2.63;;;0.50;;
50932;SDS011;36921;49.006;9.292;2022-07-05T12:22:48;1.73;;;0.82;;
50932;SDS011;36921;49.006;9.292;2022-07-05T12:25:15;3.33;;;1.85;;
50932;SDS011;36921;49.006;9.292;2022-07-05T12:27:42;1.08;;;0.40;;
50932;SDS011;36921;49.006;9.292;2022-07-05T12:30:10;0.35;;;0.20;;
50932;SDS011;36921;49.006;9.292;2022-07-05T12:35:26;3.00;;;0.40;;
50932;SDS011;36921;49.006;9.292;2022-07-05T12:37:53;1.77;;;0.60;;
50932;SDS011;36921;49.006;9.292;2022-07-05T12:40:21;1.38;;;0.40;;
50932;SDS011;36921;49.006;9.292;2022-07-05T12:42:59;1.48;;;0.50;;
50932;SDS011;36921;49.006;9.292;2022-07-05T12:45:29;3.15;;;0.45;;
50932;SDS011;36921;49.006;9.292;2022-07-05T12:47:55;1.50;;;0.40;;
50932;SDS011;36921;49.006;9.292;2022-07-05T12:50:23;1.17;;;0.70;;
50932;SDS011;36921;49.006;9.292;2022-07-05T12:55:57;1.52;;;0.60;;
50932;SDS011;36921;49.006;9.292;2022-07-05T12:58:47;2.08;;;0.50;;
50932;SDS011;36921;49.006;9.292;2022-07-05T13:04:02;2.10;;;0.40;;
50932;SDS011;36921;49.006;9.292;2022-07-05T13:09:07;0.63;;;0.30;;
50932;SDS011;36921;49.006;9.292;2022-07-05T13:11:33;0.70;;;0.32;;
50932;SDS011;36921;49.006;9.292;2022-07-05T13:13:58;2.40;;;0.52;;
50932;SDS011;36921;49.006;9.292;2022-07-05T13:16:23;0.70;;;0.35;;
50932;SDS011;36921;49.006;9.292;2022-07-05T13:18:50;0.88;;;0.35;;
50932;SDS011;36921;49.006;9.292;2022-07-05T13:21:15;5.78;;;0.52;;
50932;SDS011;36921;49.006;9.292;2022-07-05T13:23:41;1.45;;;0.50;;
50932;SDS011;36921;49.006;9.292;2022-07-05T13:26:06;1.02;;;0.57;;
50932;SDS011;36921;49.006;9.292;2022-07-05T13:28:32;0.80;;;0.45;;
50932;SDS011;36921;49.006;9.292;2022-07-05T13:30:58;2.88;;;0.60;;
50932;SDS011;36921;49.006;9.292;2022-07-05T13:33:23;5.00;;;0.50;;
50932;SDS011;36921;49.006;9.292;2022-07-05T13:35:48;1.05;;;0.40;;
50932;SDS011;36921;49.006;9.292;2022-07-05T13:38:14;1.95;;;0.70;;
50932;SDS011;36921;49.006;9.292;2022-07-05T13:40:39;1.27;;;0.50;;
50932;SDS011;36921;49.006;9.292;2022-07-05T13:43:05;2.92;;;0.50;;
50932;SDS011;36921;49.006;9.292;2022-07-05T13:45:31;2.53;;;0.55;;
50932;SDS011;36921;49.006;9.292;2022-07-05T13:47:56;1.45;;;0.40;;
50932;SDS011;36921;49.006;9.292;2022-07-05T13:50:22;0.82;;;0.40;;
50932;SDS011;36921;49.006;9.292;2022-07-05T13:52:56;2.50;;;0.57;;
50932;SDS011;36921;49.006;9.292;2022-07-05T13:55:21;1.98;;;0.52;;
50932;SDS011;36921;49.006;9.292;2022-07-05T13:57:47;1.40;;;0.40;;
50932;SDS011;36921;49.006;9.292;2022-07-05T14:00:13;0.90;;;0.50;;
50932;SDS011;36921;49.006;9.292;2022-07-05T14:02:38;2.38;;;0.55;;
50932;SDS011;36921;49.006;9.292;2022-07-05T14:05:04;1.85;;;0.50;;
50932;SDS011;36921;49.006;9.292;2022-07-05T14:07:29;1.88;;;0.95;;
50932;SDS011;36921;49.006;9.292;2022-07-05T14:09:55;1.83;;;0.40;;
50932;SDS011;36921;49.006;9.292;2022-07-05T14:12:20;3.13;;;0.60;;
50932;SDS011;36921;49.006;9.292;2022-07-05T14:14:45;3.05;;;0.50;;
50932;SDS011;36921;49.006;9.292;2022-07-05T14:17:11;0.95;;;0.38;;
50932;SDS011;36921;49.006;9.292;2022-07-05T14:19:36;0.65;;;0.30;;
50932;SDS011;36921;49.006;9.292;2022-07-05T14:22:03;1.33;;;0.30;;
50932;SDS011;36921;49.006;9.292;2022-07-05T14:24:28;1.23;;;0.40;;
50932;SDS011;36921;49.006;9.292;2022-07-05T14:26:54;0.45;;;0.30;;
50932;SDS011;36921;49.006;9.292;2022-07-05T14:29:19;0.68;;;0.43;;
50932;SDS011;36921;49.006;9.292;2022-07-05T14:31:45;1.35;;;0.68;;
50932;SDS011;36921;49.006;9.292;2022-07-05T14:34:10;0.68;;;0.50;;
50932;SDS011;36921;49.006;9.292;2022-07-05T14:36:35;0.95;;;0.50;;
50932;SDS011;36921;49.006;9.292;2022-07-05T14:39:01;1.50;;;0.38;;
50932;SDS011;36921;49.006;9.292;2022-07-05T14:41:27;2.80;;;0.50;;
50932;SDS011;36921;49.006;9.292;2022-07-05T14:43:53;1.83;;;0.55;;
50932;SDS011;36921;49.006;9.292;2022-07-05T14:46:19;1.77;;;0.40;;
50932;SDS011;36921;49.006;9.292;2022-07-05T14:48:45;2.60;;;0.50;;
50932;SDS011;36921;49.006;9.292;2022-07-05T14:51:11;4.45;;;0.50;;
50932;SDS011;36921;49.006;9.292;2022-07-05T14:53:36;2.03;;;1.00;;
50932;SDS011;36921;49.006;9.292;2022-07-05T14:56:02;3.63;;;1.05;;
50932;SDS011;36921;49.006;9.292;2022-07-05T14:58:27;2.28;;;0.82;;
50932;SDS011;36921;49.006;9.292;2022-07-05T15:00:57;2.47;;;0.55;;
50932;SDS011;36921;49.006;9.292;2022-07-05T15:03:23;2.60;;;0.52;;
50932;SDS011;36921;49.006;9.292;2022-07-05T15:05:49;1.65;;;0.50;;
50932;SDS011;36921;49.006;9.292;2022-07-05T15:08:14;1.33;;;0.45;;
50932;SDS011;36921;49.006;9.292;2022-07-05T15:10:43;1.15;;;0.57;;
50932;SDS011;36921;49.006;9.292;2022-07-05T15:13:08;2.60;;;0.50;;
50932;SDS011;36921;49.006;9.292;2022-07-05T15:18:27;0.70;;;0.50;;
50932;SDS011;36921;49.006;9.292;2022-07-05T15:20:53;2.10;;;0.52;;
50932;SDS011;36921;49.006;9.292;2022-07-05T15:23:18;2.60;;;0.60;;
50932;SDS011;36921;49.006;9.292;2022-07-05T15:25:53;3.25;;;0.85;;